Wilmette, IL (60091)

11:47 PM CDT on August 04, 2015 (GMT -0500)
West Wilmette | | Change Station
CLOSE
Current Station
Personal Weather Station
Location: Wilmette, IL
Elevation: 633 ft
Nearby Weather Stations

Elev 633 ft 42.08 °N, 87.74 °W | Updated 11 minutes ago

Partly Cloudy
Partly Cloudy
61.3 °F
Feels Like 61.3 °F
N
0.0
Wind Variable Wind from South

Today
High -- | Low -- °F
--% Chance of Precip.
Yesterday
High -- | Low -- °F
Precip. -- in
5:46 AM 8:06 PM
Waning Gibbous, 71% visible
Pressure 30.04 in
Visibility 10.0 miles
Clouds Clear
Dew Point 55 °F
Humidity 81%
Rainfall 0.00 in
Snow Depth Not available.
UV 0 out of 12
Pollen 7.70 out of 12
Air Quality Not available.
Flu Activity Not available.
METAR KPWK 050352Z AUTO 00000KT 10SM CLR 19/14 A3004 RMK AO2 SLP170 T01940144

More Conditions Fewer Conditions

Pressure 30.04 in
Visibility 10.0 miles
Clouds Clear
Dew Point 55 °F
Humidity 81%
Rainfall 0.00 in
Snow Depth Not available.
UV 0 out of 12
Pollen 7.70 out of 12
Air Quality Not available.
Flu Activity Not available.
METAR KPWK 050352Z AUTO 00000KT 10SM CLR 19/14 A3004 RMK AO2 SLP170 T01940144

More Conditions Fewer Conditions

10-Day Weather Forecast

×

Almanac

Astronomy

Aug. 04, 2015 Rise Set
Actual Time
Civil Twilight
Nautical Twilight
Astronomical Twilight
Moon
Length of Visible Light
Length of Day
Tomorrow will be .
, % of the Moon is Illuminated

Today's Extremes

State Highs State Lows

Community

WunderPhotos

Upload Photos

1,844,094 photos uploaded!

WunderBlogs® & News

Nearby

Air Quality

  Air Quality AQ Index Pollutant
Not available.

Snow Depth

Station Depth Elevation

Earthquake Activity

City Distance Mag. Time & Date
Minimum magnitude displayed is 2.5.

Coastal Water Temperatures

Place Temperature

Stations

Nearby Weather Stations

Station Location Temp. Windchill Dew Point Humidity Wind Precip. Elev Updated Type